createdAt,value
2019-02-07T00:00:19.782Z,16.00
2019-02-07T00:01:19.679Z,16.00
2019-02-07T00:02:19.644Z,16.00
2019-02-07T00:03:22.063Z,16.00
2019-02-07T00:04:19.628Z,16.00
2019-02-07T00:05:19.638Z,16.00
2019-02-07T00:06:19.658Z,16.00
2019-02-07T00:07:19.617Z,16.00
2019-02-07T00:08:19.603Z,16.00
2019-02-07T00:09:19.596Z,16.00
2019-02-07T00:10:20.052Z,16.00
2019-02-07T00:11:19.562Z,16.00
2019-02-07T00:12:19.597Z,16.00
2019-02-07T00:13:19.537Z,16.00
2019-02-07T00:14:19.523Z,16.00
2019-02-07T00:15:19.508Z,16.00
2019-02-07T00:16:19.497Z,16.00
2019-02-07T00:17:19.878Z,16.00
2019-02-07T00:18:19.658Z,16.00
2019-02-07T00:19:19.503Z,16.00
2019-02-07T00:20:19.463Z,16.00
2019-02-07T00:21:19.456Z,16.00
2019-02-07T00:22:19.443Z,16.00
2019-02-07T00:23:19.446Z,16.00
2019-02-07T00:24:19.778Z,16.00
2019-02-07T00:25:19.433Z,16.00
2019-02-07T00:26:19.418Z,16.00
2019-02-07T00:27:19.408Z,16.00
2019-02-07T00:28:19.405Z,16.00
2019-02-07T00:29:19.373Z,16.00
2019-02-07T00:30:19.517Z,16.00
2019-02-07T00:31:19.358Z,16.00
2019-02-07T00:32:19.333Z,16.00
2019-02-07T00:33:19.338Z,16.00
2019-02-07T00:34:19.333Z,16.00
2019-02-07T00:35:19.303Z,16.00
2019-02-07T00:36:19.385Z,16.00
2019-02-07T00:37:19.629Z,16.00
2019-02-07T00:38:19.291Z,16.00
2019-02-07T00:39:19.269Z,16.00
2019-02-07T00:40:19.267Z,16.00
2019-02-07T00:41:19.248Z,16.00
2019-02-07T00:42:19.307Z,16.00
2019-02-07T00:43:19.263Z,16.00
2019-02-07T00:44:19.247Z,16.00
2019-02-07T00:45:19.259Z,16.00
2019-02-07T00:46:19.206Z,16.00
2019-02-07T00:47:19.187Z,16.00
2019-02-07T00:48:19.231Z,16.00
2019-02-07T00:49:19.488Z,16.00
2019-02-07T00:50:19.154Z,16.00
2019-02-07T00:51:19.146Z,16.00
2019-02-07T00:52:19.122Z,16.00
2019-02-07T00:53:19.208Z,16.00
2019-02-07T00:54:20.317Z,16.00
2019-02-07T00:55:20.549Z,16.00
2019-02-07T00:56:19.090Z,16.00
2019-02-07T00:57:19.083Z,16.00
2019-02-07T00:58:19.072Z,16.00
2019-02-07T00:59:19.066Z,16.00
2019-02-07T01:00:19.122Z,16.00
2019-02-07T01:01:19.041Z,16.00
2019-02-07T01:02:19.366Z,16.00
2019-02-07T01:03:19.027Z,16.00
2019-02-07T01:04:19.007Z,16.00
2019-02-07T01:05:18.994Z,16.00
2019-02-07T01:06:19.052Z,16.00
2019-02-07T01:07:18.982Z,16.00
2019-02-07T01:08:18.981Z,16.00
2019-02-07T01:09:19.297Z,16.00
2019-02-07T01:10:18.953Z,16.00
2019-02-07T01:11:18.977Z,16.00
2019-02-07T01:12:19.163Z,16.00
2019-02-07T01:13:18.931Z,16.00
2019-02-07T01:14:19.893Z,16.00
2019-02-07T01:15:18.905Z,16.00
2019-02-07T01:16:19.193Z,16.00
2019-02-07T01:17:18.911Z,16.00
2019-02-07T01:18:18.918Z,16.00
2019-02-07T01:19:18.983Z,16.00
2019-02-07T01:20:18.849Z,16.00
2019-02-07T01:21:18.831Z,16.00
2019-02-07T01:22:18.821Z,16.00
2019-02-07T01:23:19.153Z,16.00
2019-02-07T01:24:18.860Z,16.00
2019-02-07T01:25:18.798Z,16.00
2019-02-07T01:26:18.806Z,16.00
2019-02-07T01:27:18.779Z,16.00
2019-02-07T01:28:18.765Z,16.00
2019-02-07T01:29:18.751Z,16.00
2019-02-07T01:30:19.163Z,16.00
2019-02-07T01:31:18.725Z,16.00
2019-02-07T01:32:18.722Z,16.00
2019-02-07T01:33:18.702Z,16.00
2019-02-07T01:34:18.733Z,16.00
2019-02-07T01:35:18.700Z,16.00
2019-02-07T01:36:18.720Z,16.00
2019-02-07T01:37:19.183Z,16.00
2019-02-07T01:38:18.667Z,16.00
2019-02-07T01:39:18.653Z,16.00
2019-02-07T01:40:18.687Z,16.00
2019-02-07T01:41:18.626Z,16.00
2019-02-07T01:42:18.651Z,16.00
2019-02-07T01:43:18.608Z,16.00
2019-02-07T01:44:19.018Z,16.00
2019-02-07T01:45:18.614Z,16.00
2019-02-07T01:46:18.642Z,16.00
2019-02-07T01:47:18.565Z,16.00
2019-02-07T01:48:19.471Z,16.00
2019-02-07T01:49:18.557Z,16.00
2019-02-07T01:50:18.815Z,16.00
2019-02-07T01:51:18.893Z,16.00
2019-02-07T01:52:18.506Z,16.00
2019-02-07T01:53:18.514Z,16.00
2019-02-07T01:54:18.544Z,16.00
2019-02-07T01:55:18.491Z,16.00
2019-02-07T01:56:18.472Z,16.00
2019-02-07T01:57:18.459Z,16.00
2019-02-07T01:58:18.907Z,16.00
2019-02-07T01:59:18.442Z,16.00
2019-02-07T02:00:18.487Z,16.00
2019-02-07T02:01:18.499Z,16.00
2019-02-07T02:02:18.408Z,16.00
2019-02-07T02:03:18.408Z,16.00
2019-02-07T02:04:18.435Z,16.00
2019-02-07T02:05:18.755Z,16.00
2019-02-07T02:06:18.433Z,16.00
2019-02-07T02:07:18.364Z,16.00
2019-02-07T02:08:18.356Z,16.00
2019-02-07T02:09:18.333Z,16.00
2019-02-07T02:10:18.341Z,16.00
2019-02-07T02:11:18.324Z,16.00
2019-02-07T02:12:18.822Z,16.00
2019-02-07T02:13:18.304Z,16.00
2019-02-07T02:14:18.309Z,16.00
2019-02-07T02:15:24.576Z,16.00
2019-02-07T02:16:19.287Z,16.00
2019-02-07T02:17:18.272Z,16.00
2019-02-07T02:18:18.317Z,16.00
2019-02-07T02:19:18.641Z,16.00
2019-02-07T02:20:18.219Z,16.00
2019-02-07T02:21:18.215Z,16.00
2019-02-07T02:22:18.206Z,16.00
2019-02-07T02:23:18.193Z,16.00
2019-02-07T02:24:18.416Z,16.00
2019-02-07T02:25:18.193Z,16.00
2019-02-07T02:26:18.674Z,16.00
2019-02-07T02:27:18.166Z,16.00
2019-02-07T02:28:18.144Z,16.00
2019-02-07T02:29:18.918Z,16.00
2019-02-07T02:30:18.211Z,16.00
2019-02-07T02:31:18.121Z,16.00
2019-02-07T02:32:18.104Z,16.00
2019-02-07T02:33:18.398Z,16.00
2019-02-07T02:34:18.088Z,16.00
2019-02-07T02:35:18.880Z,16.00
2019-02-07T02:36:18.104Z,16.00
2019-02-07T02:37:18.063Z,16.00
2019-02-07T02:38:18.052Z,16.00
2019-02-07T02:39:18.042Z,16.00
2019-02-07T02:40:18.361Z,16.00
2019-02-07T02:41:18.030Z,16.00
2019-02-07T02:42:18.225Z,16.00
2019-02-07T02:43:17.994Z,16.00
2019-02-07T02:44:18.028Z,16.00
2019-02-07T02:45:17.977Z,16.00
2019-02-07T02:46:18.886Z,16.00
2019-02-07T02:47:18.400Z,16.00
2019-02-07T02:48:18.003Z,16.00
2019-02-07T02:49:17.937Z,16.00
2019-02-07T02:50:18.004Z,16.00
2019-02-07T02:51:17.929Z,16.00
2019-02-07T02:52:17.923Z,16.00
2019-02-07T02:53:17.913Z,16.00
2019-02-07T02:54:18.216Z,16.00
2019-02-07T02:55:17.882Z,16.00
2019-02-07T02:56:17.872Z,16.00
2019-02-07T02:57:17.849Z,16.00
2019-02-07T02:58:18.847Z,16.00
2019-02-07T02:59:17.846Z,16.00
2019-02-07T03:01:39.356Z,16.00
2019-02-07T03:02:39.043Z,16.00
2019-02-07T03:03:39.032Z,16.00
2019-02-07T03:04:39.025Z,16.00
2019-02-07T03:05:39.002Z,16.00
2019-02-07T03:06:38.998Z,16.00
2019-02-07T03:07:40.136Z,16.00
2019-02-07T03:08:38.981Z,16.00
2019-02-07T03:09:38.957Z,16.00
2019-02-07T03:10:38.963Z,16.00
2019-02-07T03:11:38.947Z,16.00
2019-02-07T03:12:38.933Z,16.00
2019-02-07T03:13:38.942Z,16.00
2019-02-07T03:14:38.921Z,16.00
2019-02-07T03:15:49.128Z,16.00
2019-02-07T03:16:39.890Z,16.00
2019-02-07T03:17:38.884Z,16.00
2019-02-07T03:18:38.867Z,16.00
2019-02-07T03:19:39.215Z,16.00
2019-02-07T03:20:38.855Z,16.00
2019-02-07T03:21:38.849Z,16.00
2019-02-07T03:22:38.832Z,16.00
2019-02-07T03:23:38.826Z,16.00
2019-02-07T03:24:38.808Z,16.00
2019-02-07T03:25:38.818Z,16.00
2019-02-07T03:26:39.088Z,16.00
2019-02-07T03:27:38.776Z,16.00
2019-02-07T03:28:38.796Z,16.00
2019-02-07T03:29:38.791Z,16.00
2019-02-07T03:30:38.742Z,16.00
2019-02-07T03:31:38.799Z,16.00
2019-02-07T03:32:38.712Z,16.00
2019-02-07T03:33:39.029Z,16.00
2019-02-07T03:34:39.211Z,16.00
2019-02-07T03:35:38.769Z,16.00
2019-02-07T03:36:38.689Z,16.00
2019-02-07T03:37:38.904Z,16.00
2019-02-07T03:38:38.661Z,16.00
2019-02-07T03:39:38.656Z,16.00
2019-02-07T03:40:39.125Z,16.00
2019-02-07T03:41:38.616Z,16.00
2019-02-07T03:42:38.621Z,16.00
2019-02-07T03:43:38.662Z,16.00
2019-02-07T03:44:38.621Z,16.00
2019-02-07T03:45:38.597Z,16.00
2019-02-07T03:46:38.587Z,16.00
2019-02-07T03:47:38.963Z,16.00
2019-02-07T03:48:38.561Z,16.00
2019-02-07T03:49:38.588Z,16.00
2019-02-07T03:50:38.540Z,16.00
2019-02-07T03:51:38.531Z,16.00
2019-02-07T03:52:38.550Z,16.00
2019-02-07T03:53:38.511Z,16.00
2019-02-07T03:54:38.788Z,16.00
2019-02-07T03:55:38.545Z,16.00
2019-02-07T03:56:38.477Z,16.00
2019-02-07T03:57:39.214Z,16.00
2019-02-07T03:58:38.475Z,16.00
2019-02-07T03:59:38.438Z,16.00
2019-02-07T04:00:38.441Z,24.00
2019-02-07T04:01:38.490Z,24.00
2019-02-07T04:02:40.720Z,24.00
2019-02-07T04:03:38.392Z,24.00
2019-02-07T04:04:38.404Z,24.00
2019-02-07T04:05:38.374Z,24.00
2019-02-07T04:06:38.369Z,24.00
2019-02-07T04:07:39.265Z,24.00
2019-02-07T04:08:38.339Z,24.00
2019-02-07T04:09:38.341Z,24.00
2019-02-07T04:10:38.356Z,24.00
2019-02-07T04:11:38.308Z,24.00
2019-02-07T04:12:38.318Z,24.00
2019-02-07T04:13:38.357Z,24.00
2019-02-07T04:14:38.299Z,24.00
2019-02-07T04:15:38.273Z,24.00
2019-02-07T04:16:38.255Z,24.00
2019-02-07T04:17:38.251Z,24.00
2019-02-07T04:18:38.232Z,24.00
2019-02-07T04:19:38.249Z,24.00
2019-02-07T04:20:38.706Z,24.00
2019-02-07T04:21:38.213Z,24.00
2019-02-07T04:22:38.221Z,24.00
2019-02-07T04:23:38.198Z,24.00
2019-02-07T04:24:38.183Z,24.00
2019-02-07T04:25:38.216Z,24.00
2019-02-07T04:26:38.185Z,24.00
2019-02-07T04:27:38.496Z,24.00
2019-02-07T04:28:38.133Z,20.00
2019-02-07T04:29:38.142Z,24.00
2019-02-07T04:30:38.110Z,24.00
2019-02-07T04:31:38.426Z,24.00
2019-02-07T04:32:38.108Z,24.00
2019-02-07T04:33:38.096Z,24.00
2019-02-07T04:34:38.546Z,24.00
2019-02-07T04:35:38.076Z,24.00
2019-02-07T04:36:38.051Z,24.00
2019-02-07T04:37:38.073Z,24.00
2019-02-07T04:38:38.054Z,24.00
2019-02-07T04:39:38.083Z,24.00
2019-02-07T04:40:38.028Z,20.00
2019-02-07T04:41:38.484Z,24.00
2019-02-07T04:42:37.996Z,24.00
2019-02-07T04:43:38.017Z,24.00
2019-02-07T04:44:37.972Z,24.00
2019-02-07T04:45:37.956Z,24.00
2019-02-07T04:46:37.947Z,24.00
2019-02-07T04:47:37.941Z,24.00
2019-02-07T04:48:38.341Z,24.00
2019-02-07T04:49:38.225Z,24.00
2019-02-07T04:50:37.922Z,24.00
2019-02-07T04:51:37.898Z,24.00
2019-02-07T04:52:37.887Z,24.00
2019-02-07T04:53:37.868Z,24.00
2019-02-07T04:54:37.889Z,24.00
2019-02-07T04:55:38.211Z,24.00
2019-02-07T04:56:37.857Z,24.00
2019-02-07T04:57:37.830Z,24.00
2019-02-07T04:58:37.821Z,24.00
2019-02-07T04:59:37.815Z,24.00
2019-02-07T05:00:37.845Z,24.00
2019-02-07T05:01:38.135Z,24.00
2019-02-07T05:02:37.832Z,24.00
2019-02-07T05:03:37.795Z,24.00
2019-02-07T05:04:37.783Z,24.00
2019-02-07T05:05:37.750Z,24.00
2019-02-07T05:06:37.753Z,24.00
2019-02-07T05:07:37.806Z,24.00
2019-02-07T05:08:37.763Z,24.00
2019-02-07T05:09:37.716Z,24.00
2019-02-07T05:10:37.689Z,24.00
2019-02-07T05:11:37.705Z,24.00
2019-02-07T05:12:37.684Z,24.00
2019-02-07T05:13:38.001Z,24.00
2019-02-07T05:14:37.673Z,24.00
2019-02-07T05:15:37.649Z,24.00
2019-02-07T05:16:39.719Z,24.00
2019-02-07T05:17:38.641Z,24.00
2019-02-07T05:18:37.624Z,24.00
2019-02-07T05:19:37.925Z,24.00
2019-02-07T05:20:37.584Z,24.00
2019-02-07T05:21:37.594Z,24.00
2019-02-07T05:22:37.582Z,24.00
2019-02-07T05:23:37.566Z,24.00
2019-02-07T05:24:37.546Z,24.00
2019-02-07T05:25:37.612Z,24.00
2019-02-07T05:26:37.845Z,24.00
2019-02-07T05:27:37.534Z,24.00
2019-02-07T05:28:37.511Z,24.00
2019-02-07T05:29:37.500Z,24.00
2019-02-07T05:30:37.501Z,24.00
2019-02-07T05:31:37.518Z,24.00
2019-02-07T05:32:37.472Z,24.00
2019-02-07T05:33:37.781Z,24.00
2019-02-07T05:34:37.451Z,24.00
2019-02-07T05:35:37.452Z,24.00
2019-02-07T05:36:37.431Z,16.00
2019-02-07T05:37:37.463Z,24.00
2019-02-07T05:38:37.427Z,24.00
2019-02-07T05:39:37.397Z,20.00
2019-02-07T05:40:37.706Z,24.00
2019-02-07T05:41:37.386Z,24.00
2019-02-07T05:42:37.388Z,24.00
2019-02-07T05:43:37.457Z,24.00
2019-02-07T05:44:37.344Z,24.00
2019-02-07T05:45:37.347Z,24.00
2019-02-07T05:46:37.318Z,24.00
2019-02-07T05:47:37.316Z,24.00
2019-02-07T05:48:37.331Z,24.00
2019-02-07T05:49:37.328Z,24.00
2019-02-07T05:50:37.296Z,24.00
2019-02-07T05:51:37.297Z,24.00
2019-02-07T05:52:37.523Z,24.00
2019-02-07T05:53:37.566Z,24.00
2019-02-07T05:54:37.368Z,24.00
2019-02-07T05:55:37.255Z,24.00
2019-02-07T05:56:37.278Z,24.00
2019-02-07T05:57:37.204Z,24.00
2019-02-07T05:58:37.260Z,24.00
2019-02-07T05:59:37.175Z,24.00
2019-02-07T06:00:38.486Z,24.00
2019-02-07T06:01:37.226Z,24.00
2019-02-07T06:02:37.144Z,24.00
2019-02-07T06:03:37.141Z,24.00
2019-02-07T06:04:37.133Z,24.00
2019-02-07T06:05:37.157Z,24.00
2019-02-07T06:06:37.120Z,24.00
2019-02-07T06:07:37.469Z,24.00
2019-02-07T06:08:37.108Z,24.00
2019-02-07T06:09:37.079Z,24.00
2019-02-07T06:10:37.081Z,24.00
2019-02-07T06:11:37.083Z,24.00
2019-02-07T06:12:37.042Z,24.00
2019-02-07T06:13:37.066Z,24.00
2019-02-07T06:14:37.044Z,24.00
2019-02-07T06:15:37.021Z,24.00
2019-02-07T06:16:37.005Z,24.00
2019-02-07T06:17:37.135Z,24.00
2019-02-07T06:18:37.038Z,24.00
2019-02-07T06:19:37.035Z,24.00
2019-02-07T06:20:37.093Z,24.00
2019-02-07T06:21:38.098Z,24.00
2019-02-07T06:22:37.408Z,24.00
2019-02-07T06:23:37.363Z,24.00
2019-02-07T06:24:38.604Z,24.00
2019-02-07T06:25:37.253Z,24.00
2019-02-07T06:26:40.530Z,24.00
2019-02-07T06:27:36.919Z,24.00
2019-02-07T06:28:36.981Z,24.00
2019-02-07T06:29:36.963Z,24.00
2019-02-07T06:30:37.529Z,20.00
2019-02-07T06:31:37.038Z,20.00
2019-02-07T06:32:36.833Z,20.00
2019-02-07T06:33:37.149Z,24.00
2019-02-07T06:34:36.833Z,24.00
2019-02-07T06:35:36.820Z,24.00
2019-02-07T06:36:36.783Z,24.00
2019-02-07T06:37:36.894Z,24.00
2019-02-07T06:38:36.775Z,24.00
2019-02-07T06:39:36.803Z,28.00
2019-02-07T06:40:37.713Z,24.00
2019-02-07T06:41:36.722Z,28.00
2019-02-07T06:42:36.757Z,32.00
2019-02-07T06:43:36.757Z,32.00
2019-02-07T06:44:36.713Z,32.00
2019-02-07T06:45:36.703Z,32.00
2019-02-07T06:46:36.703Z,36.00
2019-02-07T06:47:36.708Z,36.00
2019-02-07T06:48:36.668Z,40.00
2019-02-07T06:49:36.700Z,28.00
2019-02-07T06:50:36.653Z,32.00
2019-02-07T06:51:36.928Z,36.00
2019-02-07T06:52:36.618Z,40.00
2019-02-07T06:53:36.663Z,48.00
2019-02-07T06:54:36.634Z,44.00
2019-02-07T06:55:36.659Z,48.00
2019-02-07T06:56:36.584Z,52.00
2019-02-07T06:57:36.593Z,52.00
2019-02-07T06:58:36.852Z,60.00
2019-02-07T06:59:36.581Z,68.00
2019-02-07T07:00:36.546Z,64.00
2019-02-07T07:01:36.586Z,72.00
2019-02-07T07:02:36.634Z,72.00
2019-02-07T07:03:36.532Z,76.00
2019-02-07T07:04:36.512Z,96.00
2019-02-07T07:05:36.548Z,104.00
2019-02-07T07:06:36.500Z,104.00
2019-02-07T07:07:36.553Z,100.00
2019-02-07T07:08:36.463Z,100.00
2019-02-07T07:09:36.485Z,112.00
2019-02-07T07:10:36.443Z,120.00
2019-02-07T07:11:36.780Z,124.00
2019-02-07T07:12:36.492Z,128.00
2019-02-07T07:13:36.461Z,132.00
2019-02-07T07:14:36.421Z,148.00
2019-02-07T07:15:36.416Z,164.00
2019-02-07T07:16:36.376Z,172.00
2019-02-07T07:17:36.367Z,176.00
2019-02-07T07:18:37.706Z,192.00
2019-02-07T07:19:36.375Z,196.00
2019-02-07T07:20:36.357Z,192.00
2019-02-07T07:21:36.349Z,224.00
2019-02-07T07:22:36.371Z,236.00
2019-02-07T07:23:36.308Z,240.00
2019-02-07T07:24:36.402Z,276.00
2019-02-07T07:25:36.607Z,328.00
2019-02-07T07:26:36.278Z,368.00
2019-02-07T07:27:36.293Z,392.00
2019-02-07T07:28:36.264Z,424.00
2019-02-07T07:29:36.256Z,460.00
2019-02-07T07:30:36.228Z,460.00
2019-02-07T07:31:36.766Z,416.00
2019-02-07T07:32:36.209Z,396.00
2019-02-07T07:33:36.212Z,400.00
2019-02-07T07:34:36.238Z,408.00
2019-02-07T07:35:36.187Z,452.00
2019-02-07T07:36:36.168Z,604.00
2019-02-07T07:37:36.204Z,724.00
2019-02-07T07:38:36.152Z,816.00
2019-02-07T07:39:36.155Z,840.00
2019-02-07T07:40:36.206Z,780.00
2019-02-07T07:41:36.135Z,712.00
2019-02-07T07:42:36.132Z,724.00
2019-02-07T07:43:36.124Z,772.00
2019-02-07T07:44:36.095Z,740.00
2019-02-07T07:45:36.088Z,732.00
2019-02-07T07:46:36.112Z,692.00
2019-02-07T07:47:36.328Z,604.00
2019-02-07T07:48:36.041Z,556.00
2019-02-07T07:49:36.068Z,580.00
2019-02-07T07:50:36.461Z,628.00
2019-02-07T07:51:36.022Z,652.00
2019-02-07T07:52:36.042Z,668.00
2019-02-07T07:53:35.991Z,696.00
2019-02-07T07:54:36.691Z,808.00
2019-02-07T07:55:36.024Z,828.00
2019-02-07T07:56:36.468Z,776.00
2019-02-07T07:57:35.977Z,680.00
2019-02-07T07:58:36.721Z,624.00
2019-02-07T07:59:35.937Z,616.00
2019-02-07T08:00:35.906Z,648.00
2019-02-07T08:01:35.943Z,688.00
2019-02-07T08:02:35.896Z,700.00
2019-02-07T08:03:36.313Z,712.00
2019-02-07T08:04:35.936Z,708.00
2019-02-07T08:05:35.872Z,676.00
2019-02-07T08:06:35.851Z,672.00
2019-02-07T08:07:35.881Z,700.00
2019-02-07T08:08:35.825Z,636.00
2019-02-07T08:09:36.353Z,652.00
2019-02-07T08:10:36.662Z,660.00
2019-02-07T08:11:35.810Z,632.00
2019-02-07T08:12:35.796Z,672.00
2019-02-07T08:13:36.647Z,640.00
2019-02-07T08:14:35.796Z,628.00
2019-02-07T08:15:36.173Z,548.00
2019-02-07T08:16:35.810Z,492.00
2019-02-07T08:17:46.840Z,556.00
2019-02-07T08:18:36.778Z,540.00
2019-02-07T08:19:35.789Z,520.00
2019-02-07T08:20:35.718Z,556.00
2019-02-07T08:21:35.713Z,584.00
2019-02-07T08:22:36.013Z,504.00
2019-02-07T08:23:35.700Z,516.00
2019-02-07T08:24:35.990Z,520.00
2019-02-07T08:25:35.665Z,568.00
2019-02-07T08:26:35.641Z,584.00
2019-02-07T08:27:35.622Z,604.00
2019-02-07T08:28:35.712Z,684.00
2019-02-07T08:29:35.617Z,692.00
2019-02-07T08:30:36.730Z,744.00
2019-02-07T08:31:35.677Z,760.00
2019-02-07T08:32:35.621Z,752.00
2019-02-07T08:33:35.568Z,768.00
2019-02-07T08:34:35.554Z,812.00
2019-02-07T08:35:35.837Z,872.00
2019-02-07T08:36:35.603Z,868.00
2019-02-07T08:37:35.564Z,904.00
2019-02-07T08:38:35.536Z,1080.00
2019-02-07T08:39:36.173Z,1128.00
2019-02-07T08:40:35.557Z,1000.00
2019-02-07T08:41:35.573Z,1000.00
2019-02-07T08:42:35.963Z,924.00
2019-02-07T08:43:35.512Z,896.00
2019-02-07T08:44:35.462Z,872.00
2019-02-07T08:45:35.460Z,816.00
2019-02-07T08:46:35.484Z,864.00
2019-02-07T08:47:35.506Z,948.00
2019-02-07T08:48:35.521Z,920.00
2019-02-07T08:49:35.793Z,884.00
2019-02-07T08:50:35.393Z,948.00
2019-02-07T08:51:35.392Z,912.00
2019-02-07T08:52:35.362Z,916.00
2019-02-07T08:53:35.365Z,884.00
2019-02-07T08:54:35.398Z,812.00
2019-02-07T08:55:35.362Z,820.00
2019-02-07T08:56:37.227Z,832.00
2019-02-07T08:57:35.330Z,876.00
2019-02-07T08:58:35.333Z,956.00
2019-02-07T08:59:35.297Z,1036.00
2019-02-07T09:00:35.437Z,1012.00
2019-02-07T09:01:35.290Z,892.00
2019-02-07T09:02:35.370Z,836.00
2019-02-07T09:03:35.647Z,876.00
2019-02-07T09:04:35.265Z,836.00
2019-02-07T09:05:35.254Z,788.00
2019-02-07T09:06:35.302Z,748.00
2019-02-07T09:07:35.222Z,672.00
2019-02-07T09:08:35.226Z,728.00
2019-02-07T09:09:35.246Z,756.00
2019-02-07T09:10:35.532Z,756.00
2019-02-07T09:11:35.161Z,708.00
2019-02-07T09:12:35.237Z,776.00
2019-02-07T09:13:35.178Z,732.00
2019-02-07T09:14:35.691Z,728.00
2019-02-07T09:15:35.188Z,820.00
2019-02-07T09:16:35.148Z,772.00
2019-02-07T09:17:36.318Z,692.00
2019-02-07T09:18:35.153Z,700.00
2019-02-07T09:19:35.671Z,768.00
2019-02-07T09:20:35.133Z,832.00
2019-02-07T09:21:35.109Z,744.00
2019-02-07T09:22:35.074Z,832.00
2019-02-07T09:23:35.119Z,996.00
2019-02-07T09:24:36.487Z,936.00
2019-02-07T09:25:35.659Z,836.00
2019-02-07T09:26:35.030Z,776.00
2019-02-07T09:27:35.058Z,800.00
2019-02-07T09:28:34.987Z,784.00
2019-02-07T09:29:35.006Z,756.00
2019-02-07T09:30:35.456Z,692.00
2019-02-07T09:31:35.686Z,664.00
2019-02-07T09:32:34.959Z,652.00
2019-02-07T09:33:34.955Z,680.00
2019-02-07T09:34:34.928Z,684.00
2019-02-07T09:35:34.936Z,720.00
2019-02-07T09:36:35.032Z,708.00
2019-02-07T09:37:34.913Z,816.00
2019-02-07T09:38:34.891Z,916.00
2019-02-07T09:39:34.870Z,912.00
2019-02-07T09:40:34.898Z,780.00
2019-02-07T09:41:34.860Z,760.00
2019-02-07T09:42:35.821Z,912.00
2019-02-07T09:43:34.831Z,1036.00
2019-02-07T09:44:34.837Z,996.00
2019-02-07T09:45:34.818Z,848.00
2019-02-07T09:46:34.827Z,804.00
2019-02-07T09:47:34.796Z,852.00
2019-02-07T09:48:35.635Z,912.00
2019-02-07T09:49:35.136Z,936.00
2019-02-07T09:50:34.792Z,1108.00
2019-02-07T09:51:34.761Z,1268.00
2019-02-07T09:52:34.754Z,1152.00
2019-02-07T09:53:34.724Z,944.00
2019-02-07T09:54:34.796Z,868.00
2019-02-07T09:55:34.744Z,908.00
2019-02-07T09:56:34.704Z,868.00
2019-02-07T09:57:34.713Z,832.00
2019-02-07T09:58:34.673Z,784.00
2019-02-07T09:59:34.662Z,796.00
2019-02-07T10:00:34.781Z,880.00
2019-02-07T10:01:34.671Z,1032.00
2019-02-07T10:02:34.647Z,952.00
2019-02-07T10:03:34.637Z,796.00
2019-02-07T10:04:34.613Z,808.00
2019-02-07T10:05:34.605Z,824.00
2019-02-07T10:06:34.761Z,760.00
2019-02-07T10:07:34.958Z,728.00
2019-02-07T10:08:34.568Z,764.00
2019-02-07T10:09:34.618Z,744.00
2019-02-07T10:10:34.548Z,712.00
2019-02-07T10:11:34.542Z,776.00
2019-02-07T10:12:35.724Z,840.00
2019-02-07T10:13:34.512Z,860.00
2019-02-07T10:14:35.618Z,892.00
2019-02-07T10:15:34.504Z,940.00
2019-02-07T10:16:34.513Z,1052.00
2019-02-07T10:17:34.557Z,1036.00
2019-02-07T10:18:34.497Z,968.00
2019-02-07T10:19:34.459Z,896.00
2019-02-07T10:20:37.210Z,832.00
2019-02-07T10:21:34.841Z,844.00
2019-02-07T10:22:34.422Z,840.00
2019-02-07T10:23:34.419Z,716.00
2019-02-07T10:24:35.188Z,696.00
2019-02-07T10:25:35.167Z,804.00
2019-02-07T10:26:34.395Z,904.00
2019-02-07T10:27:34.383Z,1108.00
2019-02-07T10:28:34.732Z,1744.00
2019-02-07T10:29:34.362Z,2784.00
2019-02-07T10:30:34.645Z,1832.00
2019-02-07T10:31:34.344Z,1396.00
2019-02-07T10:32:37.175Z,1176.00
2019-02-07T10:33:34.358Z,1160.00
2019-02-07T10:34:35.154Z,1232.00
2019-02-07T10:35:34.636Z,1404.00
2019-02-07T10:36:34.377Z,1576.00
2019-02-07T10:37:34.261Z,1664.00
2019-02-07T10:38:34.271Z,1648.00
2019-02-07T10:39:34.288Z,1636.00
2019-02-07T10:40:34.241Z,1588.00
2019-02-07T10:41:34.291Z,1164.00
2019-02-07T10:42:34.703Z,1236.00
2019-02-07T10:43:34.201Z,1456.00
2019-02-07T10:44:34.198Z,1500.00
2019-02-07T10:45:34.192Z,1576.00
2019-02-07T10:46:34.202Z,1328.00
2019-02-07T10:47:34.186Z,1164.00
2019-02-07T10:48:44.184Z,1228.00
2019-02-07T10:49:35.135Z,1400.00
2019-02-07T10:50:34.642Z,1932.00
2019-02-07T10:51:34.136Z,1328.00
2019-02-07T10:52:34.678Z,1360.00
2019-02-07T10:53:34.114Z,1752.00
2019-02-07T10:54:34.192Z,1636.00
2019-02-07T10:55:35.154Z,1628.00
2019-02-07T10:56:34.053Z,1544.00
2019-02-07T10:57:34.048Z,1724.00
2019-02-07T10:58:34.071Z,2016.00
2019-02-07T10:59:34.037Z,2648.00
2019-02-07T11:00:35.032Z,3556.00
2019-02-07T11:01:34.011Z,3828.00
2019-02-07T11:02:34.005Z,3456.00
2019-02-07T11:03:34.658Z,3248.00
2019-02-07T11:04:33.980Z,2500.00
2019-02-07T11:05:34.737Z,3068.00
2019-02-07T11:06:34.319Z,2460.00
2019-02-07T11:07:33.977Z,2680.00
2019-02-07T11:08:33.952Z,2216.00
2019-02-07T11:09:34.672Z,1652.00
2019-02-07T11:10:33.903Z,1480.00
2019-02-07T11:11:34.669Z,1604.00
2019-02-07T11:12:34.016Z,1252.00
2019-02-07T11:13:34.268Z,1096.00
2019-02-07T11:14:33.882Z,1096.00
2019-02-07T11:15:33.881Z,964.00
2019-02-07T11:16:34.611Z,1060.00
2019-02-07T11:17:33.895Z,1292.00
2019-02-07T11:18:33.922Z,1340.00
2019-02-07T11:19:33.839Z,1272.00
2019-02-07T11:20:33.811Z,1068.00
2019-02-07T11:21:33.863Z,1276.00
2019-02-07T11:22:33.783Z,1352.00
2019-02-07T11:23:33.796Z,1288.00
2019-02-07T11:24:34.164Z,1284.00
2019-02-07T11:25:35.182Z,1508.00
2019-02-07T11:26:33.758Z,1444.00
2019-02-07T11:27:33.847Z,1684.00
2019-02-07T11:28:33.821Z,1748.00
2019-02-07T11:29:33.707Z,1520.00
2019-02-07T11:30:33.808Z,1516.00
2019-02-07T11:31:33.723Z,1732.00
2019-02-07T11:32:34.231Z,2312.00
2019-02-07T11:33:33.742Z,3516.00
2019-02-07T11:34:33.677Z,2676.00
2019-02-07T11:35:33.643Z,1904.00
2019-02-07T11:36:33.700Z,1780.00
2019-02-07T11:37:33.806Z,2188.00
2019-02-07T11:38:33.622Z,2188.00
2019-02-07T11:39:34.054Z,2008.00
2019-02-07T11:40:33.614Z,3504.00
2019-02-07T11:41:33.600Z,2952.00
2019-02-07T11:42:33.718Z,2892.00
2019-02-07T11:43:33.559Z,2580.00
2019-02-07T11:44:33.616Z,2820.00
2019-02-07T11:45:34.126Z,2740.00
2019-02-07T11:46:37.403Z,4064.00
2019-02-07T11:47:33.670Z,4244.00
2019-02-07T11:48:33.613Z,4004.00
2019-02-07T11:49:33.604Z,5136.00
2019-02-07T11:50:33.504Z,3832.00
2019-02-07T11:51:33.553Z,6268.00
2019-02-07T11:52:33.922Z,6200.00
2019-02-07T11:53:33.452Z,7572.00
2019-02-07T11:54:33.585Z,7328.00
2019-02-07T11:55:34.203Z,7676.00
2019-02-07T11:56:33.440Z,7288.00
2019-02-07T11:57:33.497Z,6624.00
2019-02-07T11:58:33.424Z,9048.00
2019-02-07T11:59:33.724Z,81952.00
2019-02-07T12:00:33.832Z,76064.00
2019-02-07T12:01:33.429Z,25024.00
2019-02-07T12:02:33.368Z,36960.00
2019-02-07T12:03:33.354Z,8648.00
2019-02-07T12:04:33.362Z,11472.00
2019-02-07T12:05:33.356Z,7776.00
2019-02-07T12:06:33.864Z,8004.00
2019-02-07T12:07:33.485Z,9484.00
2019-02-07T12:08:33.319Z,6500.00
2019-02-07T12:09:33.329Z,3664.00
2019-02-07T12:10:33.341Z,4716.00
2019-02-07T12:11:33.354Z,5996.00
2019-02-07T12:12:33.362Z,4036.00
2019-02-07T12:13:34.622Z,4456.00
2019-02-07T12:14:33.280Z,6820.00
2019-02-07T12:15:33.217Z,5320.00
2019-02-07T12:16:33.273Z,7976.00
2019-02-07T12:17:33.255Z,7420.00
2019-02-07T12:18:33.362Z,5992.00
2019-02-07T12:19:33.184Z,5920.00
2019-02-07T12:20:33.190Z,9700.00
2019-02-07T12:21:33.191Z,9656.00
2019-02-07T12:22:33.199Z,21824.00
2019-02-07T12:23:33.147Z,6820.00
2019-02-07T12:24:33.243Z,8384.00
2019-02-07T12:25:33.193Z,8780.00
2019-02-07T12:26:33.496Z,65056.00
2019-02-07T12:27:33.092Z,15024.00
2019-02-07T12:28:35.930Z,21408.00
2019-02-07T12:29:33.074Z,12556.00
2019-02-07T12:30:33.991Z,33024.00
2019-02-07T12:31:33.053Z,9388.00
2019-02-07T12:32:33.054Z,8720.00
2019-02-07T12:33:34.659Z,7124.00
2019-02-07T12:34:33.017Z,6768.00
2019-02-07T12:35:33.011Z,6256.00
2019-02-07T12:36:33.075Z,9420.00
2019-02-07T12:37:33.216Z,7756.00